Time;durP1;ratioP1;P1;durP2;ratioP2;P2;SDS_P1;SDS_P2;PMS_P1;PMS_P2;Temp;Humidity;BMP_temperature;BMP_pressure;BME280_temperature;BME280_humidity;BME280_pressure;Samples;Min_cycle;Max_cycle;Signal;HPM_P1;HPM_P2
2023/06/12 00:02:17;;;;;;;14.30;5.00;;;;;;;12.01;100.00;99352.66;135402;1281;22620;-60
2023/06/12 00:05:21;;;;;;;18.60;5.80;;;;;;;12.06;100.00;99353.23;135283;1280;22687;-60
2023/06/12 00:08:24;;;;;;;12.20;3.80;;;;;;;12.09;100.00;99351.70;135251;1280;22569;-61
2023/06/12 00:11:27;;;;;;;3.60;1.80;;;;;;;11.94;100.00;99349.21;135397;1280;22526;-61
2023/06/12 00:14:31;;;;;;;19.80;7.50;;;;;;;11.85;100.00;99350.05;135393;1280;22642;-71
2023/06/12 00:17:34;;;;;;;;;;;;;;;11.80;100.00;99349.11;135315;1280;22509;-64
2023/06/12 00:20:38;;;;;;;21.10;4.40;;;;;;;11.69;100.00;99348.70;135401;1280;22566;-71
2023/06/12 00:23:40;;;;;;;;;;;;;;;11.56;100.00;99346.64;135407;1270;22511;-61
2023/06/12 00:26:42;;;;;;;62.60;5.60;;;;;;;11.45;100.00;99340.39;135379;1280;22537;-62
2023/06/12 00:29:46;;;;;;;27.80;5.30;;;;;;;11.36;100.00;99338.99;135301;1280;22595;-64
2023/06/12 00:32:49;;;;;;;19.20;6.60;;;;;;;11.26;100.00;99336.21;135397;1280;22542;-64
2023/06/12 00:35:52;;;;;;;;;;;;;;;11.18;100.00;99332.30;135342;1262;22630;-61
2023/06/12 00:38:56;;;;;;;20.60;7.30;;;;;;;11.05;100.00;99333.52;135394;1280;22541;-61
2023/06/12 00:41:59;;;;;;;21.50;7.10;;;;;;;11.09;100.00;99330.67;135403;1280;25252;-60
2023/06/12 00:45:02;;;;;;;18.80;6.30;;;;;;;11.16;100.00;99326.11;135357;1280;24232;-61
2023/06/12 00:48:07;;;;;;;24.70;9.30;;;;;;;11.22;100.00;99328.39;135390;1280;22579;-71
2023/06/12 00:51:10;;;;;;;;;;;;;;;11.17;100.00;99328.11;135314;1280;22548;-60
2023/06/12 00:54:15;;;;;;;20.90;7.90;;;;;;;11.10;100.00;99327.45;135377;1281;22527;-62
2023/06/12 00:57:18;;;;;;;21.90;8.60;;;;;;;11.09;100.00;99325.05;135363;1280;22541;-71
2023/06/12 01:00:20;;;;;;;23.30;7.80;;;;;;;11.15;100.00;99323.54;135345;1262;22539;-66
2023/06/12 01:03:24;;;;;;;19.30;7.50;;;;;;;11.19;100.00;99327.88;135396;1280;22574;-64
2023/06/12 01:06:29;;;;;;;22.50;8.00;;;;;;;11.15;100.00;99324.95;135384;1280;22514;-71
2023/06/12 01:09:33;;;;;;;12.00;3.60;;;;;;;11.06;100.00;99327.35;135352;1265;22536;-62
2023/06/12 01:12:36;;;;;;;;;;;;;;;10.84;100.00;99332.23;135346;1281;22533;-64
2023/06/12 01:15:38;;;;;;;12.90;3.90;;;;;;;10.74;100.00;99330.98;135374;1280;22525;-61
2023/06/12 01:18:41;;;;;;;28.20;5.80;;;;;;;10.67;100.00;99331.02;135360;1281;24236;-60
2023/06/12 01:21:46;;;;;;;39.30;4.40;;;;;;;10.60;100.00;99327.38;135202;1262;22731;-70
2023/06/12 01:24:49;;;;;;;42.50;3.70;;;;;;;10.57;100.00;99329.27;135288;1280;25404;-61
2023/06/12 01:27:52;;;;;;;39.10;3.80;;;;;;;10.46;100.00;99326.34;135370;1281;22516;-62
2023/06/12 01:30:55;;;;;;;16.80;5.60;;;;;;;10.42;100.00;99329.37;135352;1280;24215;-60
2023/06/12 01:34:01;;;;;;;19.20;6.60;;;;;;;10.38;100.00;99331.48;135367;1280;22580;-71
2023/06/12 01:37:06;;;;;;;20.50;7.40;;;;;;;10.34;100.00;99330.59;135369;1280;22519;-61
2023/06/12 01:40:09;;;;;;;24.40;7.60;;;;;;;10.36;100.00;99334.73;135332;1280;25285;-71
2023/06/12 01:43:12;;;;;;;;;;;;;;;10.35;100.00;99335.96;135404;1280;22484;-68
2023/06/12 01:46:15;;;;;;;;;;;;;;;10.30;100.00;99336.23;135406;1280;22496;-60
2023/06/12 01:49:17;;;;;;;23.90;8.10;;;;;;;10.28;100.00;99335.66;135331;1280;23831;-61
2023/06/12 01:52:20;;;;;;;23.10;8.40;;;;;;;10.27;100.00;99335.33;135377;1281;22536;-64
2023/06/12 01:55:24;;;;;;;22.20;8.30;;;;;;;10.32;100.00;99335.27;135341;1280;22540;-70
2023/06/12 01:58:27;;;;;;;24.60;9.20;;;;;;;10.24;100.00;99337.39;135340;1262;22638;-61
2023/06/12 02:01:29;;;;;;;;;;;;;;;10.04;100.00;99338.91;135394;1280;22589;-65
2023/06/12 02:04:32;;;;;;;;;;;;;;;9.99;100.00;99341.83;135217;1280;22553;-63
2023/06/12 02:07:36;;;;;;;23.00;9.10;;;;;;;9.86;100.00;99342.12;135355;1280;24840;-63
2023/06/12 02:10:38;;;;;;;17.50;5.00;;;;;;;9.83;100.00;99347.14;135332;1280;25885;-61
2023/06/12 02:13:40;;;;;;;;;;;;;;;9.79;100.00;99346.10;135379;1280;22503;-64
2023/06/12 02:16:45;;;;;;;21.50;8.00;;;;;;;9.70;100.00;99349.52;135391;1280;22522;-65
2023/06/12 02:19:48;;;;;;;21.90;7.80;;;;;;;9.62;100.00;99355.68;135303;1280;25470;-71
2023/06/12 02:22:51;;;;;;;;;;;;;;;9.50;100.00;99356.42;135397;1280;25263;-62
2023/06/12 02:25:53;;;;;;;21.00;7.20;;;;;;;9.50;100.00;99354.52;135380;1280;22642;-65
2023/06/12 02:28:56;;;;;;;24.00;8.60;;;;;;;9.54;100.00;99357.60;135390;1280;22540;-61
2023/06/12 02:31:59;;;;;;;;;;;;;;;9.71;100.00;99357.36;135332;1278;22503;-69
2023/06/12 02:35:02;;;;;;;22.20;7.80;;;;;;;9.84;100.00;99360.55;135361;1280;22543;-68
2023/06/12 02:38:04;;;;;;;23.30;9.20;;;;;;;9.91;100.00;99359.85;135356;1280;22668;-61
2023/06/12 02:41:08;;;;;;;20.90;7.20;;;;;;;9.98;100.00;99359.66;135411;1280;22548;-71
2023/06/12 02:44:10;;;;;;;19.60;6.80;;;;;;;9.95;100.00;99360.52;135332;1266;24192;-61
2023/06/12 02:47:13;;;;;;;;;;;;;;;9.83;100.00;99366.51;135383;1280;25253;-59
2023/06/12 02:50:16;;;;;;;21.30;8.70;;;;;;;9.87;100.00;99372.10;135283;1280;22779;-61
2023/06/12 02:53:19;;;;;;;;;;;;;;;10.00;100.00;99374.80;135370;1280;22552;-59
2023/06/12 02:56:22;;;;;;;;;;;;;;;10.06;100.00;99372.19;135388;1280;22530;-62
2023/06/12 02:59:25;;;;;;;21.40;8.30;;;;;;;10.17;100.00;99375.36;135319;1280;22533;-65
2023/06/12 03:02:28;;;;;;;22.40;9.00;;;;;;;10.33;100.00;99377.35;135385;1280;22547;-68
2023/06/12 03:05:31;;;;;;;24.50;8.90;;;;;;;10.39;100.00;99375.11;135342;1280;22526;-69
2023/06/12 03:08:35;;;;;;;20.10;4.40;;;;;;;10.55;100.00;99382.52;135380;1280;22543;-60
2023/06/12 03:11:37;;;;;;;21.60;8.10;;;;;;;10.79;100.00;99383.56;135293;1280;22552;-61
2023/06/12 03:14:40;;;;;;;23.10;8.80;;;;;;;10.87;100.00;99376.12;135360;1280;26503;-70
2023/06/12 03:17:42;;;;;;;;;;;;;;;10.86;100.00;99376.36;135328;1281;22542;-62
2023/06/12 03:20:45;;;;;;;22.40;9.10;;;;;;;10.88;100.00;99374.67;135355;1281;25268;-61
2023/06/12 03:23:48;;;;;;;20.50;7.20;;;;;;;11.03;100.00;99377.92;135325;1257;22529;-66
2023/06/12 03:26:51;;;;;;;24.60;8.60;;;;;;;11.26;100.00;99374.36;135366;1280;25355;-60
2023/06/12 03:29:54;;;;;;;22.20;8.40;;;;;;;11.45;100.00;99382.93;135307;1280;22533;-63
2023/06/12 03:32:58;;;;;;;21.70;7.30;;;;;;;11.71;100.00;99383.41;135329;1277;24387;-61
2023/06/12 03:36:01;;;;;;;24.00;7.60;;;;;;;11.85;100.00;99385.99;135276;1281;22532;-62
2023/06/12 03:39:04;;;;;;;22.10;7.80;;;;;;;11.96;100.00;99387.48;135334;1278;24283;-65
2023/06/12 03:42:07;;;;;;;24.50;9.50;;;;;;;12.14;100.00;99387.31;135326;1281;22540;-62
2023/06/12 03:45:10;;;;;;;21.90;8.20;;;;;;;12.31;100.00;99392.61;135355;1280;22549;-62
2023/06/12 03:48:13;;;;;;;23.10;9.30;;;;;;;12.59;100.00;99393.06;135361;1262;22548;-67
2023/06/12 03:51:16;;;;;;;22.30;9.60;;;;;;;12.77;100.00;99392.02;135333;1280;22573;-61
2023/06/12 03:54:20;;;;;;;23.50;9.00;;;;;;;12.99;100.00;99393.33;135375;1280;22559;-64
2023/06/12 03:57:22;;;;;;;25.20;10.00;;;;;;;13.05;100.00;99396.83;135238;1280;22571;-61
2023/06/12 04:00:25;;;;;;;23.30;9.60;;;;;;;13.11;100.00;99399.39;135395;1276;22526;-67
2023/06/12 04:03:34;;;;;;;24.60;8.40;;;;;;;13.33;100.00;99405.07;135397;1280;22547;-60
2023/06/12 04:06:40;;;;;;;23.40;8.60;;;;;;;13.54;100.00;99400.95;135323;1262;22536;-69
2023/06/12 04:09:44;;;;;;;21.60;7.90;;;;;;;13.64;100.00;99393.95;135329;1280;22522;-62
2023/06/12 04:12:48;;;;;;;19.50;6.40;;;;;;;13.86;100.00;99389.72;135281;1280;22537;-62
2023/06/12 04:15:52;;;;;;;21.00;6.90;;;;;;;14.27;100.00;99393.58;135358;1280;23126;-71
2023/06/12 04:18:56;;;;;;;18.60;6.30;;;;;;;14.68;100.00;99391.30;135342;1274;22635;-61
2023/06/12 04:22:00;;;;;;;18.00;6.10;;;;;;;15.02;100.00;99393.00;135357;1280;22578;-69
2023/06/12 04:25:05;;;;;;;16.60;5.20;;;;;;;15.35;100.00;99388.55;135222;1280;22564;-69
2023/06/12 04:28:13;;;;;;;16.30;5.60;;;;;;;15.70;100.00;99394.16;135360;1280;22523;-61
2023/06/12 04:31:16;;;;;;;16.80;5.30;;;;;;;16.03;100.00;99394.46;135318;1275;22548;-68
2023/06/12 04:34:19;;;;;;;16.40;5.00;;;;;;;16.20;100.00;99397.88;135212;1280;22547;-62
2023/06/12 04:37:25;;;;;;;19.50;5.20;;;;;;;16.40;99.03;99396.58;135338;1280;22525;-61
2023/06/12 04:40:28;;;;;;;14.70;4.60;;;;;;;16.55;99.95;99399.72;135319;1280;22526;-69
2023/06/12 04:43:31;;;;;;;16.70;4.70;;;;;;;16.80;98.25;99399.85;135317;1280;22552;-71
2023/06/12 04:46:35;;;;;;;16.80;4.70;;;;;;;17.02;95.04;99399.63;135383;1280;22526;-62
2023/06/12 04:49:40;;;;;;;17.10;4.90;;;;;;;17.40;92.16;99396.44;135328;1280;22537;-68
2023/06/12 04:52:43;;;;;;;16.20;4.60;;;;;;;17.56;91.79;99397.98;135286;1280;25298;-64
2023/06/12 04:55:50;;;;;;;16.30;4.40;;;;;;;17.65;91.52;99394.27;135261;1280;25379;-63
2023/06/12 04:58:53;;;;;;;17.50;4.30;;;;;;;17.87;89.92;99395.83;135341;1280;22541;-72
2023/06/12 05:02:04;;;;;;;13.60;4.30;;;;;;;18.02;87.32;99391.84;135334;1280;22530;-69
2023/06/12 05:05:07;;;;;;;13.40;4.00;;;;;;;18.13;86.55;99392.52;135258;1280;22535;-62
2023/06/12 05:08:15;;;;;;;12.40;3.50;;;;;;;18.25;82.88;99395.77;135306;1280;22529;-67
2023/06/12 05:11:17;;;;;;;12.60;3.90;;;;;;;18.29;79.67;99392.60;135279;1280;22552;-67
2023/06/12 05:14:29;;;;;;;12.70;3.40;;;;;;;18.44;78.32;99392.70;135342;1280;22560;-69
2023/06/12 05:17:33;;;;;;;12.90;3.80;;;;;;;18.61;77.23;99391.46;135347;1280;22547;-72
2023/06/12 05:20:36;;;;;;;12.20;3.60;;;;;;;18.68;73.42;99390.33;135364;1280;22533;-65
2023/06/12 05:23:39;;;;;;;10.60;3.40;;;;;;;18.75;73.16;99389.23;135353;1262;22642;-64
2023/06/12 05:26:58;;;;;;;13.60;3.90;;;;;;;18.93;74.89;99384.84;135324;1280;22530;-62
2023/06/12 05:30:00;;;;;;;16.40;4.00;;;;;;;19.00;71.78;99384.83;135328;1266;22524;-66
2023/06/12 05:33:03;;;;;;;14.20;3.70;;;;;;;19.19;72.72;99382.98;135259;1280;22526;-64
2023/06/12 05:36:07;;;;;;;11.20;3.60;;;;;;;19.41;71.02;99386.83;135280;1280;24290;-63
2023/06/12 05:39:10;;;;;;;12.20;3.70;;;;;;;19.66;70.63;99383.95;135281;1280;24872;-66
2023/06/12 05:42:15;;;;;;;15.00;4.00;;;;;;;19.91;69.06;99380.10;135277;1280;22558;-65
2023/06/12 05:45:17;;;;;;;12.70;4.00;;;;;;;20.00;68.18;99383.39;135359;1280;22513;-63
2023/06/12 05:48:24;;;;;;;12.10;3.60;;;;;;;20.19;66.32;99384.85;135333;1280;22587;-66
2023/06/12 05:51:27;;;;;;;11.90;3.50;;;;;;;20.36;65.72;99383.13;135371;1280;25260;-64
2023/06/12 05:54:31;;;;;;;11.50;3.60;;;;;;;20.52;64.90;99385.30;135336;1280;22533;-64
2023/06/12 05:57:35;;;;;;;10.30;3.20;;;;;;;20.72;63.62;99380.30;135314;1281;22683;-63
2023/06/12 06:00:40;;;;;;;8.70;3.20;;;;;;;20.86;63.62;99381.95;135320;1280;25352;-67
2023/06/12 06:03:45;;;;;;;11.20;3.50;;;;;;;20.98;62.13;99384.06;135313;1280;24263;-65
2023/06/12 06:06:48;;;;;;;11.30;3.60;;;;;;;21.10;61.50;99386.65;135307;1280;22527;-64
2023/06/12 06:09:51;;;;;;;10.80;3.70;;;;;;;21.22;60.61;99384.60;135299;1262;22646;-66
2023/06/12 06:12:54;;;;;;;12.90;3.80;;;;;;;21.44;60.05;99384.62;135328;1280;22525;-69
2023/06/12 06:15:57;;;;;;;9.70;3.30;;;;;;;21.59;59.78;99387.48;135320;1280;22558;-65
2023/06/12 06:18:59;;;;;;;16.40;4.00;;;;;;;21.64;57.83;99386.63;135279;1280;24203;-65
2023/06/12 06:22:04;;;;;;;12.40;3.40;;;;;;;21.83;58.73;99384.91;135325;1280;24239;-68
2023/06/12 06:25:10;;;;;;;10.30;3.50;;;;;;;21.98;56.60;99383.48;135328;1280;22991;-67
2023/06/12 06:28:13;;;;;;;9.50;3.80;;;;;;;21.98;55.13;99387.02;135257;1280;25390;-68
2023/06/12 06:31:16;;;;;;;14.00;3.30;;;;;;;21.83;53.60;99383.70;135252;1280;25339;-64
2023/06/12 06:34:27;;;;;;;11.80;3.60;;;;;;;21.96;54.52;99384.70;135373;1280;22544;-66
2023/06/12 06:37:30;;;;;;;11.60;3.80;;;;;;;22.18;53.90;99383.61;135318;1280;22501;-67
2023/06/12 06:40:34;;;;;;;13.20;3.40;;;;;;;22.16;52.80;99388.07;135339;1280;22529;-66
2023/06/12 06:43:36;;;;;;;9.70;3.50;;;;;;;22.29;53.45;99383.97;135333;1280;22526;-66
2023/06/12 06:46:43;;;;;;;12.10;3.50;;;;;;;22.59;52.74;99389.61;135351;1262;22544;-64
2023/06/12 06:49:46;;;;;;;15.30;3.80;;;;;;;22.65;51.37;99392.59;135290;1280;22940;-65
2023/06/12 06:52:49;;;;;;;16.20;3.60;;;;;;;22.67;51.40;99388.29;135276;1280;22666;-69
2023/06/12 06:55:52;;;;;;;13.50;3.50;;;;;;;22.79;51.05;99386.35;135329;1280;22648;-68
2023/06/12 06:58:58;;;;;;;16.40;3.80;;;;;;;23.01;51.10;99388.94;135333;1280;22556;-64
2023/06/12 07:02:02;;;;;;;11.10;3.40;;;;;;;23.30;50.52;99389.45;135306;1280;22531;-68
2023/06/12 07:05:04;;;;;;;12.60;3.30;;;;;;;23.48;50.39;99384.70;135324;1280;22535;-69
2023/06/12 07:08:07;;;;;;;11.60;3.90;;;;;;;23.65;49.35;99387.15;135324;1280;22531;-66
2023/06/12 07:11:10;;;;;;;15.20;3.60;;;;;;;23.90;48.83;99387.44;135307;1280;22549;-66
2023/06/12 07:14:13;;;;;;;8.50;3.10;;;;;;;24.03;47.70;99387.28;135310;1280;22526;-68
2023/06/12 07:17:16;;;;;;;12.20;3.80;;;;;;;24.17;46.00;99380.19;135305;1281;22552;-69
2023/06/12 07:20:20;;;;;;;12.40;3.70;;;;;;;23.89;43.48;99383.73;135303;1280;22532;-65
2023/06/12 07:23:25;;;;;;;10.80;3.50;;;;;;;23.50;43.73;99389.12;135314;1281;22540;-70
2023/06/12 07:26:28;;;;;;;12.30;3.50;;;;;;;23.00;44.59;99389.53;135295;1281;22520;-65
2023/06/12 07:29:34;;;;;;;12.40;3.80;;;;;;;23.15;46.41;99384.94;135232;1281;22542;-65
2023/06/12 07:32:37;;;;;;;10.80;3.70;;;;;;;23.05;44.90;99385.50;135188;1281;22536;-66
2023/06/12 07:35:39;;;;;;;13.70;3.60;;;;;;;22.40;46.27;99383.02;135130;1281;22533;-64
2023/06/12 07:38:44;;;;;;;14.70;4.20;;;;;;;22.22;47.20;99379.14;135323;1281;22536;-65
2023/06/12 07:41:47;;;;;;;13.10;3.50;;;;;;;22.60;46.80;99380.63;135299;1281;24977;-65
2023/06/12 07:44:50;;;;;;;14.30;3.80;;;;;;;22.81;46.12;99377.20;135288;1280;22559;-65
2023/06/12 07:47:57;;;;;;;14.60;3.50;;;;;;;23.11;46.10;99380.02;135240;1281;22532;-71
2023/06/12 07:51:00;;;;;;;14.20;3.90;;;;;;;23.23;44.59;99381.67;135234;1281;22579;-68
2023/06/12 07:54:04;;;;;;;16.20;4.40;;;;;;;22.95;45.07;99379.85;135335;1281;22525;-69
2023/06/12 07:57:08;;;;;;;11.70;3.90;;;;;;;23.37;44.77;99378.17;135319;1281;24382;-66
2023/06/12 08:00:11;;;;;;;13.70;3.60;;;;;;;23.90;46.49;99371.68;135323;1281;22536;-69
2023/06/12 08:03:15;;;;;;;15.40;3.60;;;;;;;24.38;45.38;99369.73;135326;1280;22522;-70
2023/06/12 08:06:18;;;;;;;14.50;3.70;;;;;;;24.33;44.54;99362.79;135309;1280;22530;-68
2023/06/12 08:09:22;;;;;;;14.90;3.70;;;;;;;24.02;43.88;99363.94;135333;1281;22527;-68
2023/06/12 08:12:25;;;;;;;12.10;3.30;;;;;;;24.03;44.75;99366.55;135318;1281;24232;-69
2023/06/12 08:15:29;;;;;;;14.80;3.60;;;;;;;24.52;42.15;99362.75;135341;1280;22555;-65
2023/06/12 08:18:32;;;;;;;11.70;3.90;;;;;;;24.52;41.37;99363.46;135315;1280;22567;-64
2023/06/12 08:21:36;;;;;;;13.70;3.50;;;;;;;24.20;41.65;99359.92;135312;1281;22527;-66
2023/06/12 08:24:41;;;;;;;13.30;3.40;;;;;;;23.61;42.39;99363.30;135341;1258;22531;-65
2023/06/12 08:27:45;;;;;;;12.70;3.40;;;;;;;23.08;42.41;99360.58;135235;1281;22515;-68
2023/06/12 08:30:48;;;;;;;13.50;3.30;;;;;;;22.92;42.92;99364.73;135321;1280;22529;-66
2023/06/12 08:33:51;;;;;;;13.10;3.40;;;;;;;23.68;42.42;99354.77;135364;1280;23286;-65
2023/06/12 08:36:54;;;;;;;9.70;3.50;;;;;;;23.59;40.35;99352.83;135258;1280;22540;-70
2023/06/12 08:39:58;;;;;;;14.80;4.30;;;;;;;23.27;42.05;99352.65;135319;1280;22522;-69
2023/06/12 08:43:01;;;;;;;11.90;3.90;;;;;;;23.09;41.69;99356.15;135324;1280;22532;-68
2023/06/12 08:46:06;;;;;;;11.30;3.60;;;;;;;23.53;42.47;99353.52;135272;1280;22546;-69
2023/06/12 08:49:10;;;;;;;10.20;3.20;;;;;;;24.32;41.66;99352.09;135334;1280;22533;-65
2023/06/12 08:52:13;;;;;;;16.20;3.30;;;;;;;24.40;41.52;99349.10;135324;1280;22543;-68
2023/06/12 08:55:16;;;;;;;11.20;3.30;;;;;;;24.26;40.97;99355.46;135289;1280;22522;-69
2023/06/12 08:58:19;;;;;;;16.70;3.80;;;;;;;23.73;39.33;99352.61;135304;1280;22526;-69
2023/06/12 09:01:24;;;;;;;11.70;3.40;;;;;;;23.58;41.22;99356.70;135262;1280;22538;-71
2023/06/12 09:04:28;;;;;;;10.70;2.80;;;;;;;24.28;41.19;99348.77;135339;1280;22577;-72
2023/06/12 09:07:33;;;;;;;11.50;3.00;;;;;;;24.68;37.56;99341.88;135350;1280;24261;-68
2023/06/12 09:10:35;;;;;;;11.30;3.30;;;;;;;24.08;38.21;99344.71;135314;1280;22527;-71
2023/06/12 09:13:38;;;;;;;11.50;3.10;;;;;;;23.70;38.85;99347.42;135342;1280;22529;-68
2023/06/12 09:16:41;;;;;;;8.60;2.80;;;;;;;23.79;37.75;99346.66;135304;1262;22540;-66
2023/06/12 09:19:48;;;;;;;10.50;2.90;;;;;;;24.22;37.85;99343.44;135274;1280;22530;-67
2023/06/12 09:22:52;;;;;;;6.70;2.20;;;;;;;24.19;36.31;99344.77;135339;1280;22608;-67
2023/06/12 09:25:58;;;;;;;10.80;2.80;;;;;;;24.24;35.42;99346.55;135347;1280;22541;-70
2023/06/12 09:29:04;;;;;;;12.30;2.80;;;;;;;24.22;35.53;99345.95;135317;1280;24348;-70
2023/06/12 09:32:08;;;;;;;8.90;2.70;;;;;;;24.16;35.45;99346.41;135333;1280;25239;-68
2023/06/12 09:35:12;;;;;;;8.20;2.90;;;;;;;24.54;35.10;99344.52;135342;1280;22522;-71
2023/06/12 09:38:15;;;;;;;10.30;2.80;;;;;;;24.97;34.17;99339.69;135337;1262;22519;-72
2023/06/12 09:41:18;;;;;;;10.00;2.90;;;;;;;25.07;31.31;99337.49;135339;1281;22525;-66
2023/06/12 09:44:21;;;;;;;6.50;2.40;;;;;;;24.94;32.45;99336.50;135385;1280;22552;-68
2023/06/12 09:47:24;;;;;;;10.90;2.90;;;;;;;25.21;32.61;99332.39;135327;1262;24361;-70
2023/06/12 09:50:27;;;;;;;8.40;2.60;;;;;;;24.96;30.90;99330.79;135284;1281;22637;-67
2023/06/12 09:53:30;;;;;;;13.10;2.90;;;;;;;24.29;32.26;99328.11;135312;1281;25291;-65
2023/06/12 09:56:33;;;;;;;7.40;2.70;;;;;;;24.21;32.32;99331.21;135303;1281;24273;-68
2023/06/12 09:59:36;;;;;;;7.90;2.80;;;;;;;24.87;32.18;99324.25;135346;1281;22525;-72
2023/06/12 10:02:39;;;;;;;14.70;2.80;;;;;;;25.49;32.89;99329.31;135287;1280;22520;-68
2023/06/12 10:05:43;;;;;;;10.80;3.00;;;;;;;26.22;32.53;99321.94;135349;1281;22590;-66
2023/06/12 10:08:48;;;;;;;8.80;2.40;;;;;;;26.60;32.16;99320.29;135323;1281;22530;-65
2023/06/12 10:11:50;;;;;;;10.60;2.40;;;;;;;26.10;30.82;99311.58;135255;1272;22525;-65
2023/06/12 10:14:54;;;;;;;8.30;2.80;;;;;;;26.06;31.46;99312.42;135349;1281;22525;-65
2023/06/12 10:17:57;;;;;;;10.40;2.70;;;;;;;26.21;30.64;99306.68;135342;1281;22539;-67
2023/06/12 10:21:01;;;;;;;9.80;2.60;;;;;;;26.12;28.96;99302.52;135310;1281;24250;-67
2023/06/12 10:24:05;;;;;;;9.30;2.60;;;;;;;25.79;30.04;99303.16;135317;1281;22543;-69
2023/06/12 10:27:08;;;;;;;10.00;2.80;;;;;;;26.40;31.02;99305.67;135394;1267;22577;-67
2023/06/12 10:30:11;;;;;;;8.50;2.50;;;;;;;26.90;30.54;99304.35;135336;1262;24231;-65
2023/06/12 10:33:14;;;;;;;7.30;2.80;;;;;;;26.56;29.88;99305.65;135316;1281;22526;-67
2023/06/12 10:36:17;;;;;;;7.70;2.70;;;;;;;25.95;30.23;99305.42;135253;1266;22518;-71
2023/06/12 10:39:23;;;;;;;12.70;2.90;;;;;;;26.20;30.67;99307.13;135360;1262;22535;-65
2023/06/12 10:42:27;;;;;;;14.50;3.00;;;;;;;26.35;29.78;99307.05;135340;1266;22533;-65
2023/06/12 10:45:30;;;;;;;9.70;2.90;;;;;;;26.46;30.10;99309.79;135323;1281;25278;-66
2023/06/12 10:48:33;;;;;;;12.90;3.10;;;;;;;26.47;29.14;99303.63;135375;1281;22548;-66
2023/06/12 10:51:40;;;;;;;6.30;2.40;;;;;;;26.39;29.66;99303.48;135347;1261;24218;-67
2023/06/12 10:54:42;;;;;;;9.30;2.90;;;;;;;26.55;29.78;99296.13;135284;1262;22559;-67
2023/06/12 10:57:46;;;;;;;12.80;2.80;;;;;;;27.00;29.55;99291.40;135298;1281;22545;-64
2023/06/12 11:00:48;;;;;;;11.00;2.90;;;;;;;27.05;28.39;99293.35;135351;1281;22526;-65
2023/06/12 11:03:51;;;;;;;7.20;2.70;;;;;;;26.20;27.52;99287.64;135277;1281;22555;-64
2023/06/12 11:06:54;;;;;;;8.70;2.50;;;;;;;25.80;29.63;99283.02;135313;1281;22574;-64
2023/06/12 11:09:57;;;;;;;16.30;3.40;;;;;;;26.60;30.30;99273.85;135358;1281;22526;-66
2023/06/12 11:13:00;;;;;;;10.40;2.80;;;;;;;27.01;28.45;99264.58;135352;1281;22580;-67
2023/06/12 11:16:07;;;;;;;9.90;2.70;;;;;;;26.25;27.45;99261.55;135317;1281;22529;-70
2023/06/12 11:19:10;;;;;;;9.00;2.60;;;;;;;25.16;27.72;99262.77;135334;1281;22523;-66
2023/06/12 11:22:14;;;;;;;10.00;2.40;;;;;;;24.72;29.07;99257.05;135329;1281;22566;-66
2023/06/12 11:25:17;;;;;;;7.90;2.70;;;;;;;25.29;28.94;99255.94;135241;1280;22562;-66
2023/06/12 11:28:23;;;;;;;8.80;2.80;;;;;;;24.92;28.80;99246.41;132582;1281;5391149;-67
2023/06/12 11:31:26;;;;;;;8.60;3.10;;;;;;;24.65;29.28;99247.33;135349;1281;25409;-68
2023/06/12 11:34:31;;;;;;;14.20;2.90;;;;;;;24.37;29.43;99242.52;135340;1281;22548;-66
2023/06/12 11:37:34;;;;;;;8.10;2.60;;;;;;;24.90;31.06;99237.55;135362;1281;22550;-66
2023/06/12 11:40:37;;;;;;;13.50;2.70;;;;;;;25.77;29.87;99234.48;135307;1281;22527;-67
2023/06/12 11:43:39;;;;;;;8.50;2.70;;;;;;;26.65;29.33;99221.84;135351;1281;22569;-69
2023/06/12 11:46:42;;;;;;;7.60;2.50;;;;;;;27.39;29.20;99223.14;135322;1280;22550;-65
2023/06/12 11:49:44;;;;;;;11.20;3.00;;;;;;;27.93;28.77;99225.02;135299;1281;22530;-65
2023/06/12 11:52:51;;;;;;;10.60;3.10;;;;;;;28.19;26.53;99220.59;135389;1267;22658;-66
2023/06/12 11:55:55;;;;;;;7.20;2.60;;;;;;;27.85;27.03;99220.59;135300;1281;22526;-66
2023/06/12 11:58:58;;;;;;;6.20;2.40;;;;;;;27.83;26.52;99227.20;135326;1281;25417;-67
2023/06/12 12:02:01;;;;;;;15.60;3.10;;;;;;;27.68;27.02;99228.45;135302;1281;22670;-65
2023/06/12 12:05:04;;;;;;;10.50;2.90;;;;;;;27.78;26.78;99222.16;135270;1280;22529;-65
2023/06/12 12:08:07;;;;;;;8.70;2.80;;;;;;;27.51;25.07;99222.09;135284;1280;22523;-66
2023/06/12 12:11:11;;;;;;;10.40;3.00;;;;;;;26.42;26.33;99221.27;135276;1280;22527;-65
2023/06/12 12:14:14;;;;;;;13.60;3.30;;;;;;;25.60;27.20;99223.41;135307;1281;22525;-67
2023/06/12 12:17:17;;;;;;;12.10;3.60;;;;;;;25.64;28.27;99223.73;135351;1280;22592;-66
2023/06/12 12:20:20;;;;;;;9.50;3.00;;;;;;;25.99;27.02;99220.91;135218;1280;22559;-67
2023/06/12 12:23:23;;;;;;;9.00;3.00;;;;;;;26.74;28.67;99214.02;135305;1281;22557;-65
2023/06/12 12:26:28;;;;;;;12.20;2.90;;;;;;;27.71;28.12;99208.59;135364;1280;22545;-67
2023/06/12 12:29:33;;;;;;;6.90;2.60;;;;;;;27.73;25.99;99201.94;135252;1280;22541;-64
2023/06/12 12:32:40;;;;;;;9.10;2.80;;;;;;;27.06;26.35;99204.39;135331;1280;22544;-66
2023/06/12 12:35:42;;;;;;;13.10;2.80;;;;;;;27.43;25.59;99197.50;135376;1280;22592;-67
2023/06/12 12:38:46;;;;;;;11.20;2.80;;;;;;;27.56;26.56;99202.70;135385;1280;22540;-65
2023/06/12 12:41:49;;;;;;;10.70;3.00;;;;;;;27.69;26.48;99203.92;135367;1280;25399;-66
2023/06/12 12:44:59;;;;;;;7.30;2.70;;;;;;;28.05;27.21;99196.04;135352;1281;22544;-66
2023/06/12 12:48:04;;;;;;;9.70;2.70;;;;;;;27.93;26.19;99190.81;135400;1280;22531;-66
2023/06/12 12:51:08;;;;;;;9.60;2.70;;;;;;;28.16;26.32;99184.78;135355;1280;22552;-71
2023/06/12 12:54:11;;;;;;;9.80;2.90;;;;;;;28.13;24.61;99182.53;135349;1280;22545;-65
2023/06/12 12:57:14;;;;;;;7.10;2.70;;;;;;;27.14;25.25;99186.54;135342;1280;22639;-67
2023/06/12 13:00:18;;;;;;;9.70;2.90;;;;;;;26.47;25.15;99188.69;135317;1281;22536;-72
2023/06/12 13:03:21;;;;;;;7.20;2.60;;;;;;;26.06;26.21;99183.21;135357;1280;22519;-69
2023/06/12 13:06:24;;;;;;;5.80;2.40;;;;;;;25.29;27.01;99181.63;135377;1280;22557;-66
2023/06/12 13:09:28;;;;;;;9.40;2.70;;;;;;;25.57;27.10;99182.02;135366;1280;22533;-69
2023/06/12 13:12:31;;;;;;;11.40;2.70;;;;;;;25.95;26.16;99172.34;135329;1280;22547;-68
2023/06/12 13:15:34;;;;;;;9.40;2.60;;;;;;;26.29;26.69;99171.81;135334;1281;22538;-69
2023/06/12 13:18:36;;;;;;;6.30;2.40;;;;;;;26.65;26.58;99156.91;135321;1280;22548;-69
2023/06/12 13:21:39;;;;;;;8.80;2.70;;;;;;;25.96;26.08;99167.29;135369;1280;22532;-68
2023/06/12 13:24:43;;;;;;;6.60;2.30;;;;;;;25.50;27.33;99170.70;135394;1280;26507;-66
2023/06/12 13:27:46;;;;;;;7.40;2.70;;;;;;;24.97;27.62;99173.23;135381;1281;22526;-67
2023/06/12 13:30:50;;;;;;;10.70;2.90;;;;;;;25.34;28.58;99167.09;135336;1280;24489;-67
2023/06/12 13:33:53;;;;;;;10.00;2.70;;;;;;;26.16;27.47;99165.96;135389;1280;22526;-67
2023/06/12 13:36:56;;;;;;;8.70;2.50;;;;;;;26.71;26.70;99164.61;135305;1280;22531;-68
2023/06/12 13:40:00;;;;;;;14.60;2.60;;;;;;;26.78;24.98;99159.09;135342;1280;22644;-67
2023/06/12 13:43:03;;;;;;;9.70;2.70;;;;;;;26.91;25.73;99158.02;135347;1280;25454;-65
2023/06/12 13:46:06;;;;;;;9.40;2.80;;;;;;;27.14;25.57;99161.26;135360;1281;22536;-65
2023/06/12 13:49:09;;;;;;;11.20;2.40;;;;;;;27.01;25.97;99157.66;135373;1280;22563;-67
2023/06/12 13:52:13;;;;;;;10.60;2.60;;;;;;;26.54;25.20;99160.65;135310;1281;22551;-67
2023/06/12 13:55:16;;;;;;;9.20;2.40;;;;;;;26.49;25.62;99160.95;135190;1280;22652;-67
2023/06/12 13:58:19;;;;;;;7.70;2.70;;;;;;;26.71;25.14;99157.77;135360;1280;22540;-67
2023/06/12 14:01:22;;;;;;;8.30;2.70;;;;;;;27.16;25.60;99151.66;135347;1280;22542;-66
2023/06/12 14:04:25;;;;;;;9.70;2.70;;;;;;;27.49;24.77;99151.43;135335;1280;22556;-67
2023/06/12 14:07:28;;;;;;;7.00;2.60;;;;;;;27.80;24.69;99149.46;135315;1280;22569;-67
2023/06/12 14:10:32;;;;;;;7.50;2.30;;;;;;;28.12;25.59;99151.49;135217;1281;22560;-67